createdAt,value
2022-08-26T00:04:27.673Z,5.95
2022-08-26T00:12:37.304Z,5.43
2022-08-26T00:20:44.087Z,4.55
2022-08-26T00:28:52.711Z,4.35
2022-08-26T00:36:58.619Z,4.63
2022-08-26T00:45:11.581Z,4.53
2022-08-26T01:01:36.245Z,5.10
2022-08-26T01:09:41.694Z,5.93
2022-08-26T01:17:50.719Z,5.22
2022-08-26T01:26:05.810Z,5.22
2022-08-26T01:34:17.934Z,5.13
2022-08-26T01:42:29.009Z,5.50
2022-08-26T01:50:38.208Z,5.95
2022-08-26T01:58:49.649Z,5.28
2022-08-26T02:06:57.591Z,5.25
2022-08-26T02:15:11.188Z,5.43
2022-08-26T02:23:16.656Z,5.90
2022-08-26T02:31:25.921Z,5.47
2022-08-26T02:39:32.406Z,5.57
2022-08-26T02:47:40.565Z,5.88
2022-08-26T02:55:49.530Z,5.10
2022-08-26T03:03:58.702Z,5.78
2022-08-26T03:12:04.197Z,4.68
2022-08-26T03:20:13.758Z,5.70
2022-08-26T03:28:21.440Z,4.70
2022-08-26T03:36:29.817Z,5.50
2022-08-26T03:44:35.478Z,5.30
2022-08-26T03:52:44.241Z,5.60
2022-08-26T04:00:50.245Z,4.70
2022-08-26T04:09:05.440Z,4.93
2022-08-26T04:17:11.484Z,5.22
2022-08-26T04:25:20.492Z,4.78
2022-08-26T04:33:32.419Z,4.80
2022-08-26T04:41:41.657Z,5.37
2022-08-26T04:49:47.106Z,5.38
2022-08-26T04:57:55.164Z,5.07
2022-08-26T05:06:01.028Z,4.45
2022-08-26T05:14:10.190Z,4.63
2022-08-26T05:22:15.669Z,4.95
2022-08-26T05:30:26.756Z,5.22
2022-08-26T05:38:32.177Z,5.75
2022-08-26T05:46:42.086Z,4.13
2022-08-26T05:54:49.543Z,5.00
2022-08-26T06:02:58.968Z,4.50
2022-08-26T06:11:07.291Z,4.82
2022-08-26T06:19:17.577Z,4.53
2022-08-26T06:27:23.234Z,4.85
2022-08-26T06:35:31.650Z,5.20
2022-08-26T06:43:36.975Z,5.43
2022-08-26T06:51:45.226Z,5.05
2022-08-26T06:59:54.337Z,4.80
2022-08-26T07:08:02.322Z,4.47
2022-08-26T07:16:08.739Z,5.53
2022-08-26T07:24:17.666Z,5.03
2022-08-26T07:32:23.711Z,5.40
2022-08-26T07:40:32.091Z,5.60
2022-08-26T07:48:38.186Z,4.25
2022-08-26T07:56:48.654Z,4.60
2022-08-26T08:04:54.747Z,3.75
2022-08-26T08:13:03.181Z,4.13
2022-08-26T08:21:21.314Z,4.38
2022-08-26T08:29:30.704Z,3.97
2022-08-26T08:37:36.138Z,3.85
2022-08-26T08:45:52.550Z,3.63
2022-08-26T08:53:59.745Z,4.22
2022-08-26T09:02:16.871Z,3.97
2022-08-26T09:10:35.190Z,4.30
2022-08-26T09:19:04.257Z,4.03
2022-08-26T09:27:11.439Z,3.60
2022-08-26T09:35:31.014Z,3.92
2022-08-26T09:43:36.429Z,3.55
2022-08-26T09:51:44.894Z,3.28
2022-08-26T09:59:57.859Z,9.07
2022-08-26T10:08:25.978Z,3.78
2022-08-26T10:16:37.418Z,2.80
2022-08-26T10:24:54.471Z,3.10
2022-08-26T10:33:04.648Z,4.97
2022-08-26T10:41:16.957Z,3.50
2022-08-26T10:49:23.902Z,3.13
2022-08-26T10:57:49.335Z,3.10
2022-08-26T11:06:19.314Z,3.42
2022-08-26T11:14:53.590Z,2.88
2022-08-26T11:23:34.079Z,3.13
2022-08-26T11:32:00.022Z,3.15
2022-08-26T11:40:12.260Z,3.53
2022-08-26T11:48:23.944Z,3.60
2022-08-26T11:56:33.351Z,3.60
2022-08-26T12:04:44.116Z,3.30
2022-08-26T12:12:58.106Z,3.53
2022-08-26T12:21:16.253Z,3.40
2022-08-26T12:29:28.480Z,3.40
2022-08-26T12:37:40.385Z,3.20
2022-08-26T12:46:00.044Z,3.37
2022-08-26T12:54:08.228Z,3.22
2022-08-26T13:02:13.778Z,3.35
2022-08-26T13:10:40.262Z,3.38
2022-08-26T13:18:45.598Z,3.67
2022-08-26T13:26:54.995Z,3.83
2022-08-26T13:35:05.591Z,3.70
2022-08-26T13:43:14.556Z,4.07
2022-08-26T13:51:20.574Z,3.97
2022-08-26T13:59:28.604Z,3.85
2022-08-26T14:07:36.249Z,3.30
2022-08-26T14:15:46.806Z,4.53
2022-08-26T14:23:52.229Z,3.20
2022-08-26T14:32:06.910Z,3.03
2022-08-26T14:40:14.160Z,3.30
2022-08-26T14:48:22.333Z,3.80
2022-08-26T14:56:27.839Z,3.42
2022-08-26T15:04:35.930Z,3.15
2022-08-26T15:12:41.503Z,3.20
2022-08-26T15:20:49.791Z,3.17
2022-08-26T15:28:55.499Z,4.05
2022-08-26T15:37:03.458Z,3.50
2022-08-26T15:45:09.948Z,2.92
2022-08-26T15:53:18.375Z,3.92
2022-08-26T16:01:27.532Z,2.78
2022-08-26T16:09:37.118Z,3.53
2022-08-26T16:17:42.982Z,3.42
2022-08-26T16:25:51.405Z,2.90
2022-08-26T16:33:56.844Z,3.30
2022-08-26T16:42:04.856Z,4.10
2022-08-26T16:50:13.070Z,4.45
2022-08-26T16:58:22.330Z,4.75
2022-08-26T17:06:27.861Z,5.07
2022-08-26T17:14:36.279Z,5.18
2022-08-26T17:22:43.922Z,6.88
2022-08-26T17:30:54.366Z,6.63
2022-08-26T17:39:00.719Z,6.75
2022-08-26T17:47:09.561Z,6.32
2022-08-26T17:55:17.013Z,7.85
2022-08-26T18:03:25.257Z,7.55
2022-08-26T18:11:31.949Z,6.28
2022-08-26T18:19:39.934Z,6.32
2022-08-26T18:27:45.436Z,5.57
2022-08-26T18:35:56.510Z,5.93
2022-08-26T18:44:02.666Z,5.57
2022-08-26T18:52:10.684Z,4.90
2022-08-26T19:00:17.667Z,4.97
2022-08-26T19:08:25.716Z,4.13
2022-08-26T19:16:34.396Z,5.20
2022-08-26T19:24:42.450Z,5.88
2022-08-26T19:32:48.027Z,5.63
2022-08-26T19:40:56.072Z,6.25
2022-08-26T19:49:01.530Z,6.25
2022-08-26T19:57:09.528Z,6.35
2022-08-26T20:05:16.690Z,6.43
2022-08-26T20:13:24.716Z,6.25
2022-08-26T20:21:31.706Z,6.90
2022-08-26T20:29:40.601Z,6.93
2022-08-26T20:37:46.138Z,7.63
2022-08-26T20:45:54.403Z,7.47
2022-08-26T20:54:01.939Z,7.75
2022-08-26T21:02:11.280Z,9.50
2022-08-26T21:10:18.119Z,10.82
2022-08-26T21:18:26.727Z,10.85
2022-08-26T21:26:32.539Z,8.98
2022-08-26T21:34:41.620Z,8.25
2022-08-26T21:42:47.004Z,7.88
2022-08-26T21:50:57.285Z,8.02
2022-08-26T21:59:03.874Z,7.15
2022-08-26T22:07:11.908Z,6.25
2022-08-26T22:15:19.895Z,6.13
2022-08-26T22:23:28.408Z,5.25
2022-08-26T22:31:38.332Z,4.78
2022-08-26T22:39:46.623Z,6.07
2022-08-26T22:47:52.070Z,5.22
2022-08-26T22:56:00.106Z,4.63
2022-08-26T23:04:07.445Z,5.13
2022-08-26T23:12:15.551Z,5.18
2022-08-26T23:20:22.541Z,5.43
2022-08-26T23:28:32.018Z,4.68
2022-08-26T23:36:37.421Z,5.30
2022-08-26T23:44:45.574Z,5.15
2022-08-26T23:53:03.585Z,5.78
